sensor_id;sensor_type;location;lat;lon;timestamp;temperature;humidity
3940;DHT22;1984;48.312;9.244;2022-10-01T00:00:18;7.40;99.90
3940;DHT22;1984;48.312;9.244;2022-10-01T00:02:45;7.40;99.90
3940;DHT22;1984;48.312;9.244;2022-10-01T00:05:11;7.40;99.90
3940;DHT22;1984;48.312;9.244;2022-10-01T00:07:42;7.40;99.90
3940;DHT22;1984;48.312;9.244;2022-10-01T00:10:08;7.40;99.90
3940;DHT22;1984;48.312;9.244;2022-10-01T00:12:36;7.40;99.90
3940;DHT22;1984;48.312;9.244;2022-10-01T00:15:02;7.40;99.90
3940;DHT22;1984;48.312;9.244;2022-10-01T00:17:28;7.40;99.90
3940;DHT22;1984;48.312;9.244;2022-10-01T00:19:53;7.40;99.90
3940;DHT22;1984;48.312;9.244;2022-10-01T00:22:19;7.40;99.90
3940;DHT22;1984;48.312;9.244;2022-10-01T00:24:45;7.40;99.90
3940;DHT22;1984;48.312;9.244;2022-10-01T00:27:12;7.50;99.90
3940;DHT22;1984;48.312;9.244;2022-10-01T00:29:39;7.40;99.90
3940;DHT22;1984;48.312;9.244;2022-10-01T00:32:05;7.30;99.90
3940;DHT22;1984;48.312;9.244;2022-10-01T00:34:30;7.20;99.90
3940;DHT22;1984;48.312;9.244;2022-10-01T00:36:56;7.30;99.90
3940;DHT22;1984;48.312;9.244;2022-10-01T00:39:22;7.20;99.90
3940;DHT22;1984;48.312;9.244;2022-10-01T00:41:48;7.20;99.90
3940;DHT22;1984;48.312;9.244;2022-10-01T00:44:35;7.10;99.90
3940;DHT22;1984;48.312;9.244;2022-10-01T00:47:18;7.00;99.90
3940;DHT22;1984;48.312;9.244;2022-10-01T00:49:46;7.00;99.90
3940;DHT22;1984;48.312;9.244;2022-10-01T00:52:16;7.00;99.90
3940;DHT22;1984;48.312;9.244;2022-10-01T00:54:46;7.00;99.90
3940;DHT22;1984;48.312;9.244;2022-10-01T00:57:16;7.00;99.90
3940;DHT22;1984;48.312;9.244;2022-10-01T00:59:43;7.00;99.90
3940;DHT22;1984;48.312;9.244;2022-10-01T01:02:10;6.90;99.90
3940;DHT22;1984;48.312;9.244;2022-10-01T01:04:38;6.90;99.90
3940;DHT22;1984;48.312;9.244;2022-10-01T01:07:04;6.90;99.90
3940;DHT22;1984;48.312;9.244;2022-10-01T01:09:34;6.80;99.90
3940;DHT22;1984;48.312;9.244;2022-10-01T01:15:17;6.80;99.90
3940;DHT22;1984;48.312;9.244;2022-10-01T01:17:53;6.70;99.90
3940;DHT22;1984;48.312;9.244;2022-10-01T01:28:39;6.60;99.90
3940;DHT22;1984;48.312;9.244;2022-10-01T01:31:14;6.60;99.90
3940;DHT22;1984;48.312;9.244;2022-10-01T01:33:45;6.50;99.90
3940;DHT22;1984;48.312;9.244;2022-10-01T01:36:17;6.50;99.90
3940;DHT22;1984;48.312;9.244;2022-10-01T01:38:50;6.40;99.90
3940;DHT22;1984;48.312;9.244;2022-10-01T01:41:20;6.40;99.90
3940;DHT22;1984;48.312;9.244;2022-10-01T01:43:48;6.40;99.90
3940;DHT22;1984;48.312;9.244;2022-10-01T01:46:16;6.40;99.90
3940;DHT22;1984;48.312;9.244;2022-10-01T01:48:44;6.40;99.90
3940;DHT22;1984;48.312;9.244;2022-10-01T01:51:31;6.30;99.90
3940;DHT22;1984;48.312;9.244;2022-10-01T01:53:58;6.30;99.90
3940;DHT22;1984;48.312;9.244;2022-10-01T01:56:24;6.30;99.90
3940;DHT22;1984;48.312;9.244;2022-10-01T01:58:51;6.30;99.90
3940;DHT22;1984;48.312;9.244;2022-10-01T02:01:36;6.30;99.90
3940;DHT22;1984;48.312;9.244;2022-10-01T02:04:08;6.20;99.90
3940;DHT22;1984;48.312;9.244;2022-10-01T02:10:09;6.20;99.90
3940;DHT22;1984;48.312;9.244;2022-10-01T02:17:48;6.30;99.90
3940;DHT22;1984;48.312;9.244;2022-10-01T02:20:36;6.30;99.90
3940;DHT22;1984;48.312;9.244;2022-10-01T02:23:07;6.30;99.90
3940;DHT22;1984;48.312;9.244;2022-10-01T02:25:40;6.30;99.90
3940;DHT22;1984;48.312;9.244;2022-10-01T02:28:11;6.30;99.90
3940;DHT22;1984;48.312;9.244;2022-10-01T02:30:40;6.40;99.90
3940;DHT22;1984;48.312;9.244;2022-10-01T02:33:08;6.40;99.90
3940;DHT22;1984;48.312;9.244;2022-10-01T02:35:35;6.50;99.90
3940;DHT22;1984;48.312;9.244;2022-10-01T02:38:04;6.50;99.90
3940;DHT22;1984;48.312;9.244;2022-10-01T02:40:34;6.50;99.90
3940;DHT22;1984;48.312;9.244;2022-10-01T02:43:07;6.60;99.90
3940;DHT22;1984;48.312;9.244;2022-10-01T02:45:36;6.60;99.90
3940;DHT22;1984;48.312;9.244;2022-10-01T02:48:07;6.60;99.90
3940;DHT22;1984;48.312;9.244;2022-10-01T02:50:42;6.70;99.90
3940;DHT22;1984;48.312;9.244;2022-10-01T02:53:27;6.70;99.90
3940;DHT22;1984;48.312;9.244;2022-10-01T02:55:57;6.70;99.90
3940;DHT22;1984;48.312;9.244;2022-10-01T02:58:23;6.70;99.90
3940;DHT22;1984;48.312;9.244;2022-10-01T03:00:49;6.70;99.90
3940;DHT22;1984;48.312;9.244;2022-10-01T03:03:14;6.70;99.90
3940;DHT22;1984;48.312;9.244;2022-10-01T03:05:40;6.70;99.90
3940;DHT22;1984;48.312;9.244;2022-10-01T03:08:06;6.80;99.90
3940;DHT22;1984;48.312;9.244;2022-10-01T03:10:31;6.80;99.90
3940;DHT22;1984;48.312;9.244;2022-10-01T03:12:57;6.90;99.90
3940;DHT22;1984;48.312;9.244;2022-10-01T03:15:26;6.80;99.90
3940;DHT22;1984;48.312;9.244;2022-10-01T03:17:52;6.90;99.90
3940;DHT22;1984;48.312;9.244;2022-10-01T03:20:18;6.90;99.90
3940;DHT22;1984;48.312;9.244;2022-10-01T03:22:45;6.90;99.90
3940;DHT22;1984;48.312;9.244;2022-10-01T03:25:12;6.90;99.90
3940;DHT22;1984;48.312;9.244;2022-10-01T03:27:37;6.90;99.90
3940;DHT22;1984;48.312;9.244;2022-10-01T03:30:03;6.90;99.90
3940;DHT22;1984;48.312;9.244;2022-10-01T03:32:30;6.90;99.90
3940;DHT22;1984;48.312;9.244;2022-10-01T03:34:57;6.90;99.90
3940;DHT22;1984;48.312;9.244;2022-10-01T03:37:22;7.00;99.90
3940;DHT22;1984;48.312;9.244;2022-10-01T03:39:48;6.90;99.90
3940;DHT22;1984;48.312;9.244;2022-10-01T03:42:13;6.90;99.90
3940;DHT22;1984;48.312;9.244;2022-10-01T03:44:41;6.90;99.90
3940;DHT22;1984;48.312;9.244;2022-10-01T03:47:07;6.90;99.90
3940;DHT22;1984;48.312;9.244;2022-10-01T03:49:34;6.90;99.90
3940;DHT22;1984;48.312;9.244;2022-10-01T03:52:00;6.90;99.90
3940;DHT22;1984;48.312;9.244;2022-10-01T03:54:26;6.90;99.90
3940;DHT22;1984;48.312;9.244;2022-10-01T03:56:52;6.90;99.90
3940;DHT22;1984;48.312;9.244;2022-10-01T03:59:17;6.90;99.90
3940;DHT22;1984;48.312;9.244;2022-10-01T04:01:43;6.80;99.90
3940;DHT22;1984;48.312;9.244;2022-10-01T04:04:09;6.80;99.90
3940;DHT22;1984;48.312;9.244;2022-10-01T04:06:34;6.80;99.90
3940;DHT22;1984;48.312;9.244;2022-10-01T04:09:00;6.80;99.90
3940;DHT22;1984;48.312;9.244;2022-10-01T04:11:25;6.80;99.90
3940;DHT22;1984;48.312;9.244;2022-10-01T04:13:51;6.80;99.90
3940;DHT22;1984;48.312;9.244;2022-10-01T04:16:17;6.80;99.90
3940;DHT22;1984;48.312;9.244;2022-10-01T04:18:42;6.80;99.90
3940;DHT22;1984;48.312;9.244;2022-10-01T04:21:08;6.80;99.90
3940;DHT22;1984;48.312;9.244;2022-10-01T04:23:34;6.80;99.90
3940;DHT22;1984;48.312;9.244;2022-10-01T04:26:00;6.80;99.90
3940;DHT22;1984;48.312;9.244;2022-10-01T04:28:30;6.80;99.90
3940;DHT22;1984;48.312;9.244;2022-10-01T04:30:55;6.80;99.90
3940;DHT22;1984;48.312;9.244;2022-10-01T04:33:41;6.80;99.90
3940;DHT22;1984;48.312;9.244;2022-10-01T04:36:07;6.80;99.90
3940;DHT22;1984;48.312;9.244;2022-10-01T04:38:33;6.80;99.90
3940;DHT22;1984;48.312;9.244;2022-10-01T04:40:58;6.80;99.90
3940;DHT22;1984;48.312;9.244;2022-10-01T04:43:24;6.80;99.90
3940;DHT22;1984;48.312;9.244;2022-10-01T04:45:49;6.80;99.90
3940;DHT22;1984;48.312;9.244;2022-10-01T04:48:15;6.80;99.90
3940;DHT22;1984;48.312;9.244;2022-10-01T04:50:40;6.80;99.90
3940;DHT22;1984;48.312;9.244;2022-10-01T04:53:06;6.80;99.90
3940;DHT22;1984;48.312;9.244;2022-10-01T04:55:31;6.80;99.90
3940;DHT22;1984;48.312;9.244;2022-10-01T04:57:57;6.80;99.90
3940;DHT22;1984;48.312;9.244;2022-10-01T05:00:23;6.90;99.90
3940;DHT22;1984;48.312;9.244;2022-10-01T05:02:50;6.90;99.90
3940;DHT22;1984;48.312;9.244;2022-10-01T05:05:18;6.90;99.90
3940;DHT22;1984;48.312;9.244;2022-10-01T05:07:44;6.90;99.90
3940;DHT22;1984;48.312;9.244;2022-10-01T05:10:15;6.90;99.90
3940;DHT22;1984;48.312;9.244;2022-10-01T05:12:41;6.90;99.90
3940;DHT22;1984;48.312;9.244;2022-10-01T05:15:09;6.90;99.90
3940;DHT22;1984;48.312;9.244;2022-10-01T05:17:34;6.90;99.90
3940;DHT22;1984;48.312;9.244;2022-10-01T05:20:01;6.90;99.90
3940;DHT22;1984;48.312;9.244;2022-10-01T05:22:27;7.00;99.90
3940;DHT22;1984;48.312;9.244;2022-10-01T05:24:53;7.10;99.90
3940;DHT22;1984;48.312;9.244;2022-10-01T05:27:19;7.20;99.90
3940;DHT22;1984;48.312;9.244;2022-10-01T05:29:44;7.30;99.90
3940;DHT22;1984;48.312;9.244;2022-10-01T05:32:11;7.50;99.90
3940;DHT22;1984;48.312;9.244;2022-10-01T05:34:37;7.50;99.90
3940;DHT22;1984;48.312;9.244;2022-10-01T05:37:04;7.50;99.90
3940;DHT22;1984;48.312;9.244;2022-10-01T05:39:30;7.50;99.90
3940;DHT22;1984;48.312;9.244;2022-10-01T05:41:58;7.40;99.90
3940;DHT22;1984;48.312;9.244;2022-10-01T05:44:24;7.40;99.90
3940;DHT22;1984;48.312;9.244;2022-10-01T05:46:51;7.40;99.90
3940;DHT22;1984;48.312;9.244;2022-10-01T05:49:17;7.40;99.90
3940;DHT22;1984;48.312;9.244;2022-10-01T05:51:43;7.40;99.90
3940;DHT22;1984;48.312;9.244;2022-10-01T05:54:10;7.50;99.90
3940;DHT22;1984;48.312;9.244;2022-10-01T05:56:36;7.50;99.90
3940;DHT22;1984;48.312;9.244;2022-10-01T05:59:02;7.50;99.90
3940;DHT22;1984;48.312;9.244;2022-10-01T06:01:28;7.50;99.90
3940;DHT22;1984;48.312;9.244;2022-10-01T06:03:53;7.50;99.90
3940;DHT22;1984;48.312;9.244;2022-10-01T06:06:21;7.50;99.90
3940;DHT22;1984;48.312;9.244;2022-10-01T06:08:46;7.50;99.90
3940;DHT22;1984;48.312;9.244;2022-10-01T06:11:12;7.50;99.90
3940;DHT22;1984;48.312;9.244;2022-10-01T06:13:37;7.50;99.90
3940;DHT22;1984;48.312;9.244;2022-10-01T06:16:04;7.50;99.90
3940;DHT22;1984;48.312;9.244;2022-10-01T06:18:30;7.50;99.90
3940;DHT22;1984;48.312;9.244;2022-10-01T06:20:57;7.50;99.90
3940;DHT22;1984;48.312;9.244;2022-10-01T06:23:23;7.60;99.90
3940;DHT22;1984;48.312;9.244;2022-10-01T06:25:49;7.60;99.90
3940;DHT22;1984;48.312;9.244;2022-10-01T06:28:14;7.60;99.90
3940;DHT22;1984;48.312;9.244;2022-10-01T06:30:40;7.60;99.90
3940;DHT22;1984;48.312;9.244;2022-10-01T06:33:09;7.60;99.90
3940;DHT22;1984;48.312;9.244;2022-10-01T06:35:40;7.60;99.90
3940;DHT22;1984;48.312;9.244;2022-10-01T06:38:06;7.70;99.90
3940;DHT22;1984;48.312;9.244;2022-10-01T06:40:32;7.70;99.90
3940;DHT22;1984;48.312;9.244;2022-10-01T06:42:58;7.70;99.90
3940;DHT22;1984;48.312;9.244;2022-10-01T06:45:24;7.70;99.90
3940;DHT22;1984;48.312;9.244;2022-10-01T06:47:55;7.70;99.90
3940;DHT22;1984;48.312;9.244;2022-10-01T06:50:21;7.70;99.90
3940;DHT22;1984;48.312;9.244;2022-10-01T06:52:47;7.70;99.90
3940;DHT22;1984;48.312;9.244;2022-10-01T06:55:35;7.70;99.90
3940;DHT22;1984;48.312;9.244;2022-10-01T06:58:01;7.70;99.90
3940;DHT22;1984;48.312;9.244;2022-10-01T07:00:28;7.60;99.90
3940;DHT22;1984;48.312;9.244;2022-10-01T07:02:55;7.70;99.90
3940;DHT22;1984;48.312;9.244;2022-10-01T07:05:21;7.60;99.90
3940;DHT22;1984;48.312;9.244;2022-10-01T07:07:47;7.60;99.90
3940;DHT22;1984;48.312;9.244;2022-10-01T07:10:16;7.70;99.90
3940;DHT22;1984;48.312;9.244;2022-10-01T07:12:44;7.70;99.90
3940;DHT22;1984;48.312;9.244;2022-10-01T07:15:10;7.80;99.90
3940;DHT22;1984;48.312;9.244;2022-10-01T07:17:46;7.80;99.90
3940;DHT22;1984;48.312;9.244;2022-10-01T07:20:13;7.80;99.90
3940;DHT22;1984;48.312;9.244;2022-10-01T07:22:46;7.80;99.90
3940;DHT22;1984;48.312;9.244;2022-10-01T07:25:13;7.80;99.90
3940;DHT22;1984;48.312;9.244;2022-10-01T07:27:39;7.80;99.90
3940;DHT22;1984;48.312;9.244;2022-10-01T07:30:05;7.90;99.90
3940;DHT22;1984;48.312;9.244;2022-10-01T07:32:31;7.90;99.90
3940;DHT22;1984;48.312;9.244;2022-10-01T07:34:57;8.00;99.90
3940;DHT22;1984;48.312;9.244;2022-10-01T07:37:23;8.10;99.90
3940;DHT22;1984;48.312;9.244;2022-10-01T07:39:49;8.10;99.90
3940;DHT22;1984;48.312;9.244;2022-10-01T07:42:14;8.20;99.90
3940;DHT22;1984;48.312;9.244;2022-10-01T07:44:40;8.20;99.90
3940;DHT22;1984;48.312;9.244;2022-10-01T07:47:05;8.20;99.90
3940;DHT22;1984;48.312;9.244;2022-10-01T07:49:31;8.20;99.90
3940;DHT22;1984;48.312;9.244;2022-10-01T07:51:56;8.20;99.90
3940;DHT22;1984;48.312;9.244;2022-10-01T07:54:24;8.20;99.90
3940;DHT22;1984;48.312;9.244;2022-10-01T07:56:50;8.20;99.90
3940;DHT22;1984;48.312;9.244;2022-10-01T07:59:23;8.30;99.90
3940;DHT22;1984;48.312;9.244;2022-10-01T08:01:49;8.30;99.90
3940;DHT22;1984;48.312;9.244;2022-10-01T08:04:16;8.20;99.90
3940;DHT22;1984;48.312;9.244;2022-10-01T08:07:00;8.20;99.90
3940;DHT22;1984;48.312;9.244;2022-10-01T08:09:26;8.30;99.90
3940;DHT22;1984;48.312;9.244;2022-10-01T08:11:51;8.30;99.90
3940;DHT22;1984;48.312;9.244;2022-10-01T08:14:17;8.40;99.90
3940;DHT22;1984;48.312;9.244;2022-10-01T08:16:43;8.40;99.90
3940;DHT22;1984;48.312;9.244;2022-10-01T08:19:09;8.40;99.90
3940;DHT22;1984;48.312;9.244;2022-10-01T08:21:35;8.50;99.90
3940;DHT22;1984;48.312;9.244;2022-10-01T08:24:02;8.50;99.90
3940;DHT22;1984;48.312;9.244;2022-10-01T08:26:27;8.50;99.90
3940;DHT22;1984;48.312;9.244;2022-10-01T08:28:53;8.50;99.90
3940;DHT22;1984;48.312;9.244;2022-10-01T08:31:18;8.50;99.90
3940;DHT22;1984;48.312;9.244;2022-10-01T08:33:44;8.60;99.90
3940;DHT22;1984;48.312;9.244;2022-10-01T08:36:09;8.60;99.90
3940;DHT22;1984;48.312;9.244;2022-10-01T08:38:36;8.70;99.90
3940;DHT22;1984;48.312;9.244;2022-10-01T08:41:11;8.70;99.90
3940;DHT22;1984;48.312;9.244;2022-10-01T08:43:41;8.70;99.90
3940;DHT22;1984;48.312;9.244;2022-10-01T08:46:17;8.80;99.90
3940;DHT22;1984;48.312;9.244;2022-10-01T08:49:07;8.80;99.90
3940;DHT22;1984;48.312;9.244;2022-10-01T08:52:04;8.80;99.90
3940;DHT22;1984;48.312;9.244;2022-10-01T08:54:39;8.80;99.90
3940;DHT22;1984;48.312;9.244;2022-10-01T08:57:20;8.90;99.90
3940;DHT22;1984;48.312;9.244;2022-10-01T08:59:53;8.90;99.90
3940;DHT22;1984;48.312;9.244;2022-10-01T09:02:26;9.00;99.90
3940;DHT22;1984;48.312;9.244;2022-10-01T09:05:01;9.00;99.90
3940;DHT22;1984;48.312;9.244;2022-10-01T09:10:20;9.10;99.90
3940;DHT22;1984;48.312;9.244;2022-10-01T09:13:16;9.10;99.90
3940;DHT22;1984;48.312;9.244;2022-10-01T09:16:04;9.20;99.90
3940;DHT22;1984;48.312;9.244;2022-10-01T09:21:24;9.40;99.90
3940;DHT22;1984;48.312;9.244;2022-10-01T09:24:05;9.50;99.90
3940;DHT22;1984;48.312;9.244;2022-10-01T09:26:32;9.50;99.90
3940;DHT22;1984;48.312;9.244;2022-10-01T09:29:01;9.40;99.90
3940;DHT22;1984;48.312;9.244;2022-10-01T09:31:39;9.40;99.90
3940;DHT22;1984;48.312;9.244;2022-10-01T09:34:12;9.30;99.90
3940;DHT22;1984;48.312;9.244;2022-10-01T09:39:20;9.30;99.90
3940;DHT22;1984;48.312;9.244;2022-10-01T09:41:47;9.30;99.90
3940;DHT22;1984;48.312;9.244;2022-10-01T09:44:17;9.30;99.90
3940;DHT22;1984;48.312;9.244;2022-10-01T09:46:45;9.30;99.90
3940;DHT22;1984;48.312;9.244;2022-10-01T09:51:54;9.40;99.90
3940;DHT22;1984;48.312;9.244;2022-10-01T09:54:36;9.50;99.90
3940;DHT22;1984;48.312;9.244;2022-10-01T09:57:08;9.50;99.90
3940;DHT22;1984;48.312;9.244;2022-10-01T09:59:43;9.60;99.90
3940;DHT22;1984;48.312;9.244;2022-10-01T10:04:46;9.70;99.90
3940;DHT22;1984;48.312;9.244;2022-10-01T10:07:16;9.70;99.90
3940;DHT22;1984;48.312;9.244;2022-10-01T10:09:43;9.70;99.90
3940;DHT22;1984;48.312;9.244;2022-10-01T10:12:24;9.70;99.90
3940;DHT22;1984;48.312;9.244;2022-10-01T10:14:50;9.70;99.90
3940;DHT22;1984;48.312;9.244;2022-10-01T10:17:19;9.70;99.90
3940;DHT22;1984;48.312;9.244;2022-10-01T10:19:47;9.80;99.90
3940;DHT22;1984;48.312;9.244;2022-10-01T10:22:22;9.80;99.90
3940;DHT22;1984;48.312;9.244;2022-10-01T10:24:50;9.80;99.90
3940;DHT22;1984;48.312;9.244;2022-10-01T10:27:28;9.80;99.90
3940;DHT22;1984;48.312;9.244;2022-10-01T10:30:12;9.90;99.90
3940;DHT22;1984;48.312;9.244;2022-10-01T10:32:38;9.90;99.90
3940;DHT22;1984;48.312;9.244;2022-10-01T10:35:08;10.00;99.90
3940;DHT22;1984;48.312;9.244;2022-10-01T10:37:44;10.00;99.90
3940;DHT22;1984;48.312;9.244;2022-10-01T10:40:20;10.00;99.90
3940;DHT22;1984;48.312;9.244;2022-10-01T10:42:48;10.00;99.90
3940;DHT22;1984;48.312;9.244;2022-10-01T10:45:17;10.00;99.90
3940;DHT22;1984;48.312;9.244;2022-10-01T10:47:47;10.10;99.90
3940;DHT22;1984;48.312;9.244;2022-10-01T10:50:27;10.10;99.90
3940;DHT22;1984;48.312;9.244;2022-10-01T10:52:54;10.10;99.90
3940;DHT22;1984;48.312;9.244;2022-10-01T10:55:28;10.20;99.90
3940;DHT22;1984;48.312;9.244;2022-10-01T10:58:08;10.20;99.90
3940;DHT22;1984;48.312;9.244;2022-10-01T11:00:35;10.30;99.90
3940;DHT22;1984;48.312;9.244;2022-10-01T11:03:13;10.30;99.90
3940;DHT22;1984;48.312;9.244;2022-10-01T11:05:41;10.40;99.90
3940;DHT22;1984;48.312;9.244;2022-10-01T11:08:11;10.50;99.90
3940;DHT22;1984;48.312;9.244;2022-10-01T11:11:00;10.50;99.90
3940;DHT22;1984;48.312;9.244;2022-10-01T11:18:41;10.40;99.90
3940;DHT22;1984;48.312;9.244;2022-10-01T11:32:04;10.50;99.90
3940;DHT22;1984;48.312;9.244;2022-10-01T11:35:10;10.60;99.90
3940;DHT22;1984;48.312;9.244;2022-10-01T11:40:46;10.60;99.90
3940;DHT22;1984;48.312;9.244;2022-10-01T11:43:29;10.70;99.90
3940;DHT22;1984;48.312;9.244;2022-10-01T11:46:01;10.70;99.90
3940;DHT22;1984;48.312;9.244;2022-10-01T11:48:43;10.80;99.90
3940;DHT22;1984;48.312;9.244;2022-10-01T11:51:13;10.80;99.90
3940;DHT22;1984;48.312;9.244;2022-10-01T11:53:48;10.90;99.90
3940;DHT22;1984;48.312;9.244;2022-10-01T11:56:20;10.90;99.90
3940;DHT22;1984;48.312;9.244;2022-10-01T12:07:22;11.00;99.90
3940;DHT22;1984;48.312;9.244;2022-10-01T12:12:22;11.10;99.90
3940;DHT22;1984;48.312;9.244;2022-10-01T12:15:11;11.20;99.90
3940;DHT22;1984;48.312;9.244;2022-10-01T12:20:42;11.30;99.90
3940;DHT22;1984;48.312;9.244;2022-10-01T12:23:25;11.40;99.90
3940;DHT22;1984;48.312;9.244;2022-10-01T12:26:15;11.50;99.90
3940;DHT22;1984;48.312;9.244;2022-10-01T12:31:42;11.70;99.90
3940;DHT22;1984;48.312;9.244;2022-10-01T12:34:34;11.80;99.90
3940;DHT22;1984;48.312;9.244;2022-10-01T12:43:05;11.90;99.90
3940;DHT22;1984;48.312;9.244;2022-10-01T12:45:43;11.90;99.90
3940;DHT22;1984;48.312;9.244;2022-10-01T12:51:36;12.20;99.90
3940;DHT22;1984;48.312;9.244;2022-10-01T12:57:18;12.50;99.90
3940;DHT22;1984;48.312;9.244;2022-10-01T13:00:08;12.50;99.90
3940;DHT22;1984;48.312;9.244;2022-10-01T13:06:13;12.50;99.90
3940;DHT22;1984;48.312;9.244;2022-10-01T13:08:43;12.60;99.90
3940;DHT22;1984;48.312;9.244;2022-10-01T13:11:48;12.60;99.90
3940;DHT22;1984;48.312;9.244;2022-10-01T13:14:16;12.70;99.90
3940;DHT22;1984;48.312;9.244;2022-10-01T13:17:45;12.60;99.90
3940;DHT22;1984;48.312;9.244;2022-10-01T13:20:05;12.60;99.90
3940;DHT22;1984;48.312;9.244;2022-10-01T13:22:48;12.60;99.90
3940;DHT22;1984;48.312;9.244;2022-10-01T13:25:41;12.70;99.90
3940;DHT22;1984;48.312;9.244;2022-10-01T13:28:17;12.70;99.90
3940;DHT22;1984;48.312;9.244;2022-10-01T13:30:59;12.70;99.90
3940;DHT22;1984;48.312;9.244;2022-10-01T13:33:29;12.80;99.90
3940;DHT22;1984;48.312;9.244;2022-10-01T13:35:58;12.90;99.90
3940;DHT22;1984;48.312;9.244;2022-10-01T13:38:39;13.00;99.90
3940;DHT22;1984;48.312;9.244;2022-10-01T13:41:15;13.10;99.90
3940;DHT22;1984;48.312;9.244;2022-10-01T13:43:52;13.10;99.90
3940;DHT22;1984;48.312;9.244;2022-10-01T13:46:26;13.10;99.90
3940;DHT22;1984;48.312;9.244;2022-10-01T13:49:03;13.10;99.90
3940;DHT22;1984;48.312;9.244;2022-10-01T13:51:37;13.20;99.90
3940;DHT22;1984;48.312;9.244;2022-10-01T13:54:08;13.20;99.90
3940;DHT22;1984;48.312;9.244;2022-10-01T13:56:39;13.20;99.90
3940;DHT22;1984;48.312;9.244;2022-10-01T14:01:49;13.20;99.90
3940;DHT22;1984;48.312;9.244;2022-10-01T14:06:51;13.10;99.90
3940;DHT22;1984;48.312;9.244;2022-10-01T14:09:25;13.00;99.90
3940;DHT22;1984;48.312;9.244;2022-10-01T14:12:20;12.90;99.90
3940;DHT22;1984;48.312;9.244;2022-10-01T14:15:18;12.90;99.90
3940;DHT22;1984;48.312;9.244;2022-10-01T14:18:14;12.80;99.90
3940;DHT22;1984;48.312;9.244;2022-10-01T14:23:47;12.80;99.90
3940;DHT22;1984;48.312;9.244;2022-10-01T14:34:27;12.70;99.90
3940;DHT22;1984;48.312;9.244;2022-10-01T14:36:55;12.70;99.90
3940;DHT22;1984;48.312;9.244;2022-10-01T14:39:22;12.70;99.90
3940;DHT22;1984;48.312;9.244;2022-10-01T14:41:51;12.70;99.90
3940;DHT22;1984;48.312;9.244;2022-10-01T14:46:51;12.70;99.90
3940;DHT22;1984;48.312;9.244;2022-10-01T15:02:50;12.70;99.90
3940;DHT22;1984;48.312;9.244;2022-10-01T15:05:28;12.60;99.90
3940;DHT22;1984;48.312;9.244;2022-10-01T15:07:54;12.70;99.90
3940;DHT22;1984;48.312;9.244;2022-10-01T15:10:22;12.70;99.90
3940;DHT22;1984;48.312;9.244;2022-10-01T15:12:52;12.70;99.90
3940;DHT22;1984;48.312;9.244;2022-10-01T15:15:44;12.60;99.90
3940;DHT22;1984;48.312;9.244;2022-10-01T15:18:16;12.60;99.90
3940;DHT22;1984;48.312;9.244;2022-10-01T15:20:56;12.60;99.90
3940;DHT22;1984;48.312;9.244;2022-10-01T15:23:24;12.60;99.90
3940;DHT22;1984;48.312;9.244;2022-10-01T15:25:52;12.60;99.90
3940;DHT22;1984;48.312;9.244;2022-10-01T15:28:29;12.60;99.90
3940;DHT22;1984;48.312;9.244;2022-10-01T15:30:57;12.60;99.90
3940;DHT22;1984;48.312;9.244;2022-10-01T15:33:32;12.60;99.90
3940;DHT22;1984;48.312;9.244;2022-10-01T15:36:11;12.50;99.90
3940;DHT22;1984;48.312;9.244;2022-10-01T15:38:38;12.60;99.90
3940;DHT22;1984;48.312;9.244;2022-10-01T15:41:06;12.50;99.90
3940;DHT22;1984;48.312;9.244;2022-10-01T15:43:38;12.50;99.90
3940;DHT22;1984;48.312;9.244;2022-10-01T15:46:18;12.60;99.90
3940;DHT22;1984;48.312;9.244;2022-10-01T15:48:45;12.50;99.90
3940;DHT22;1984;48.312;9.244;2022-10-01T15:53:44;12.50;99.90
3940;DHT22;1984;48.312;9.244;2022-10-01T15:56:12;12.50;99.90
3940;DHT22;1984;48.312;9.244;2022-10-01T15:58:47;12.60;99.90
3940;DHT22;1984;48.312;9.244;2022-10-01T16:01:27;12.50;99.90
3940;DHT22;1984;48.312;9.244;2022-10-01T16:04:08;12.50;99.90
3940;DHT22;1984;48.312;9.244;2022-10-01T16:06:46;12.40;99.90
3940;DHT22;1984;48.312;9.244;2022-10-01T16:09:17;12.50;99.90
3940;DHT22;1984;48.312;9.244;2022-10-01T16:12:02;12.40;99.90
3940;DHT22;1984;48.312;9.244;2022-10-01T16:14:31;12.40;99.90
3940;DHT22;1984;48.312;9.244;2022-10-01T16:19:45;12.50;99.90
3940;DHT22;1984;48.312;9.244;2022-10-01T16:25:27;12.50;99.90
3940;DHT22;1984;48.312;9.244;2022-10-01T16:30:38;12.40;99.90
3940;DHT22;1984;48.312;9.244;2022-10-01T16:33:03;12.40;99.90
3940;DHT22;1984;48.312;9.244;2022-10-01T16:35:32;12.30;99.90
3940;DHT22;1984;48.312;9.244;2022-10-01T16:38:00;12.30;99.90
3940;DHT22;1984;48.312;9.244;2022-10-01T16:40:28;12.30;99.90
3940;DHT22;1984;48.312;9.244;2022-10-01T16:42:55;12.20;99.90
3940;DHT22;1984;48.312;9.244;2022-10-01T16:45:24;12.20;99.90
3940;DHT22;1984;48.312;9.244;2022-10-01T16:47:51;12.20;99.90
3940;DHT22;1984;48.312;9.244;2022-10-01T16:50:19;12.20;99.90
3940;DHT22;1984;48.312;9.244;2022-10-01T16:52:53;12.20;99.90
3940;DHT22;1984;48.312;9.244;2022-10-01T16:55:29;12.10;99.90
3940;DHT22;1984;48.312;9.244;2022-10-01T16:57:56;12.10;99.90
3940;DHT22;1984;48.312;9.244;2022-10-01T17:00:24;12.10;99.90
3940;DHT22;1984;48.312;9.244;2022-10-01T17:02:50;12.00;99.90
3940;DHT22;1984;48.312;9.244;2022-10-01T17:05:28;11.90;99.90
3940;DHT22;1984;48.312;9.244;2022-10-01T17:07:54;11.80;99.90
3940;DHT22;1984;48.312;9.244;2022-10-01T17:10:27;11.80;99.90
3940;DHT22;1984;48.312;9.244;2022-10-01T17:12:53;11.80;99.90
3940;DHT22;1984;48.312;9.244;2022-10-01T17:15:22;11.70;99.90
3940;DHT22;1984;48.312;9.244;2022-10-01T17:17:52;11.70;99.90
3940;DHT22;1984;48.312;9.244;2022-10-01T17:20:18;11.60;99.90
3940;DHT22;1984;48.312;9.244;2022-10-01T17:22:44;11.60;99.90
3940;DHT22;1984;48.312;9.244;2022-10-01T17:25:14;11.60;99.90
3940;DHT22;1984;48.312;9.244;2022-10-01T17:27:40;11.60;99.90
3940;DHT22;1984;48.312;9.244;2022-10-01T17:30:06;11.60;99.90
3940;DHT22;1984;48.312;9.244;2022-10-01T17:32:32;11.60;99.90
3940;DHT22;1984;48.312;9.244;2022-10-01T17:35:00;11.60;99.90
3940;DHT22;1984;48.312;9.244;2022-10-01T17:37:26;11.60;99.90
3940;DHT22;1984;48.312;9.244;2022-10-01T17:39:51;11.60;99.90
3940;DHT22;1984;48.312;9.244;2022-10-01T17:42:17;11.60;99.90
3940;DHT22;1984;48.312;9.244;2022-10-01T17:44:43;11.60;99.90
3940;DHT22;1984;48.312;9.244;2022-10-01T17:47:09;11.60;99.90
3940;DHT22;1984;48.312;9.244;2022-10-01T17:49:34;11.60;99.90
3940;DHT22;1984;48.312;9.244;2022-10-01T17:52:00;11.60;99.90
3940;DHT22;1984;48.312;9.244;2022-10-01T17:54:26;11.60;99.90
3940;DHT22;1984;48.312;9.244;2022-10-01T17:56:52;11.60;99.90
3940;DHT22;1984;48.312;9.244;2022-10-01T17:59:19;11.50;99.90
3940;DHT22;1984;48.312;9.244;2022-10-01T18:01:45;11.50;99.90
3940;DHT22;1984;48.312;9.244;2022-10-01T18:04:10;11.50;99.90
3940;DHT22;1984;48.312;9.244;2022-10-01T18:06:37;11.50;99.90
3940;DHT22;1984;48.312;9.244;2022-10-01T18:09:04;11.50;99.90
3940;DHT22;1984;48.312;9.244;2022-10-01T18:11:30;11.40;99.90
3940;DHT22;1984;48.312;9.244;2022-10-01T18:13:56;11.40;99.90
3940;DHT22;1984;48.312;9.244;2022-10-01T18:16:22;11.40;99.90
3940;DHT22;1984;48.312;9.244;2022-10-01T18:18:53;11.40;99.90
3940;DHT22;1984;48.312;9.244;2022-10-01T18:21:19;11.40;99.90
3940;DHT22;1984;48.312;9.244;2022-10-01T18:23:45;11.40;99.90
3940;DHT22;1984;48.312;9.244;2022-10-01T18:26:10;11.40;99.90
3940;DHT22;1984;48.312;9.244;2022-10-01T18:28:36;11.40;99.90
3940;DHT22;1984;48.312;9.244;2022-10-01T18:33:51;11.40;99.90
3940;DHT22;1984;48.312;9.244;2022-10-01T18:39:18;11.40;99.90
3940;DHT22;1984;48.312;9.244;2022-10-01T18:41:48;11.50;99.90
3940;DHT22;1984;48.312;9.244;2022-10-01T18:44:16;11.40;99.90
3940;DHT22;1984;48.312;9.244;2022-10-01T18:51:51;11.40;99.90